createdAt,value
2022-08-30T00:01:03.329Z,254.90
2022-08-30T00:03:34.161Z,88.55
2022-08-30T00:06:01.147Z,148.68
2022-08-30T00:08:27.987Z,232.48
2022-08-30T00:10:55.379Z,237.90
2022-08-30T00:13:23.352Z,356.75
2022-08-30T00:15:50.418Z,280.23
2022-08-30T00:18:18.615Z,291.95
2022-08-30T00:20:46.792Z,168.95
2022-08-30T00:23:14.282Z,176.60
2022-08-30T00:25:41.666Z,208.85
2022-08-30T00:28:09.732Z,48.67
2022-08-30T00:30:37.233Z,16.33
2022-08-30T00:33:04.703Z,82.05
2022-08-30T00:35:31.779Z,23.05
2022-08-30T00:37:58.667Z,7.68
2022-08-30T00:40:27.614Z,242.05
2022-08-30T00:42:58.859Z,231.90
2022-08-30T00:45:30.824Z,113.45
2022-08-30T00:47:58.305Z,119.70
2022-08-30T00:50:35.366Z,88.95
2022-08-30T00:53:06.087Z,84.32
2022-08-30T00:55:33.270Z,56.35
2022-08-30T00:58:04.258Z,19.42
2022-08-30T01:00:32.344Z,22.02
2022-08-30T01:02:59.184Z,15.55
2022-08-30T01:05:26.142Z,66.03
2022-08-30T01:07:52.961Z,27.17
2022-08-30T01:10:20.139Z,22.92
2022-08-30T01:12:48.632Z,13.70
2022-08-30T01:15:15.856Z,10.48
2022-08-30T01:17:45.161Z,6.60
2022-08-30T01:20:17.663Z,7.70
2022-08-30T01:22:50.394Z,5.28
2022-08-30T01:25:22.189Z,5.68
2022-08-30T01:28:20.015Z,10.82
2022-08-30T01:30:47.620Z,17.15
2022-08-30T01:33:14.774Z,11.65
2022-08-30T01:36:00.466Z,16.90
2022-08-30T01:38:38.312Z,27.85
2022-08-30T01:41:14.119Z,45.55
2022-08-30T01:43:41.529Z,47.55
2022-08-30T01:46:08.620Z,127.40
2022-08-30T01:48:35.539Z,67.78
2022-08-30T01:51:02.437Z,23.88
2022-08-30T01:53:29.495Z,60.47
2022-08-30T01:55:56.395Z,187.45
2022-08-30T01:58:23.634Z,163.02
2022-08-30T02:00:51.373Z,132.45
2022-08-30T02:03:19.421Z,63.13
2022-08-30T02:05:46.438Z,8.10
2022-08-30T02:08:13.400Z,10.50
2022-08-30T02:10:40.358Z,11.52
2022-08-30T02:13:07.159Z,15.18
2022-08-30T02:15:41.267Z,135.40
2022-08-30T02:18:10.628Z,118.90
2022-08-30T02:20:39.588Z,10.02
2022-08-30T02:23:06.528Z,67.03
2022-08-30T02:25:33.370Z,5.38
2022-08-30T02:28:00.115Z,12.77
2022-08-30T02:30:27.245Z,7.85
2022-08-30T02:32:54.082Z,7.18
2022-08-30T02:35:20.887Z,6.40
2022-08-30T02:37:47.737Z,5.80
2022-08-30T02:40:14.840Z,7.65
2022-08-30T02:42:41.819Z,6.35
2022-08-30T02:45:09.115Z,9.88
2022-08-30T02:47:36.304Z,11.02
2022-08-30T02:50:06.289Z,10.02
2022-08-30T02:52:33.190Z,10.13
2022-08-30T02:55:00.127Z,10.82
2022-08-30T02:57:27.012Z,6.45
2022-08-30T02:59:53.887Z,3.58
2022-08-30T03:02:22.146Z,6.43
2022-08-30T03:04:49.317Z,4.78
2022-08-30T03:07:16.247Z,4.50
2022-08-30T03:09:43.048Z,3.63
2022-08-30T03:12:10.705Z,3.83
2022-08-30T03:14:38.605Z,2.15
2022-08-30T03:17:12.758Z,3.05
2022-08-30T03:19:43.515Z,4.25
2022-08-30T03:22:10.605Z,4.60
2022-08-30T03:24:37.813Z,3.28
2022-08-30T03:27:04.988Z,3.92
2022-08-30T03:29:31.817Z,2.90
2022-08-30T03:31:58.829Z,6.97
2022-08-30T03:34:26.823Z,13.40
2022-08-30T03:36:55.398Z,21.98
2022-08-30T03:39:23.176Z,14.68
2022-08-30T03:41:50.460Z,6.03
2022-08-30T03:44:18.813Z,4.60
2022-08-30T03:46:46.541Z,4.15
2022-08-30T03:49:13.436Z,5.47
2022-08-30T03:51:40.342Z,3.55
2022-08-30T03:54:07.297Z,3.45
2022-08-30T03:56:34.140Z,5.40
2022-08-30T03:59:01.111Z,3.67
2022-08-30T04:01:28.027Z,3.72
2022-08-30T04:03:56.593Z,3.20
2022-08-30T04:06:24.045Z,3.50
2022-08-30T04:08:51.183Z,4.38
2022-08-30T04:11:18.104Z,4.13
2022-08-30T04:13:44.954Z,3.15
2022-08-30T04:16:11.793Z,4.00
2022-08-30T04:18:39.010Z,2.70
2022-08-30T04:21:09.524Z,2.80
2022-08-30T04:23:39.220Z,3.97
2022-08-30T04:26:06.066Z,2.92
2022-08-30T04:28:35.103Z,1.98
2022-08-30T04:31:11.888Z,1.77
2022-08-30T04:33:39.459Z,2.05
2022-08-30T04:36:08.044Z,1.40
2022-08-30T04:38:36.225Z,1.92
2022-08-30T04:41:03.752Z,3.47
2022-08-30T04:43:30.490Z,2.15
2022-08-30T04:45:58.000Z,9.35
2022-08-30T04:48:24.811Z,59.63
2022-08-30T04:50:51.616Z,24.58
2022-08-30T04:53:18.463Z,3.58
2022-08-30T04:55:45.594Z,5.85
2022-08-30T04:58:12.405Z,6.07
2022-08-30T05:00:42.131Z,2.78
2022-08-30T05:03:09.110Z,3.55
2022-08-30T05:05:41.826Z,3.15
2022-08-30T05:08:11.500Z,4.68
2022-08-30T05:10:43.909Z,3.47
2022-08-30T05:13:12.014Z,2.92
2022-08-30T05:15:40.308Z,2.72
2022-08-30T05:18:08.744Z,4.45
2022-08-30T05:20:40.186Z,3.72
2022-08-30T05:23:06.994Z,13.88
2022-08-30T05:25:37.255Z,9.38
2022-08-30T05:28:04.316Z,6.75
2022-08-30T05:30:34.551Z,5.22
2022-08-30T05:33:02.300Z,4.80
2022-08-30T05:35:29.413Z,8.32
2022-08-30T05:37:56.188Z,8.68
2022-08-30T05:40:23.461Z,8.43
2022-08-30T05:42:50.508Z,7.20
2022-08-30T05:45:17.596Z,19.98
2022-08-30T05:47:44.568Z,12.43
2022-08-30T05:50:11.448Z,11.60
2022-08-30T05:52:40.051Z,9.30
2022-08-30T05:55:08.118Z,40.42
2022-08-30T05:57:36.996Z,9.10
2022-08-30T14:22:57.085Z,766.97
2022-08-30T14:25:23.873Z,253.88
2022-08-30T14:27:50.711Z,82.90
2022-08-30T14:30:21.089Z,28.88
2022-08-30T14:32:48.113Z,66.05
2022-08-30T14:35:18.404Z,13.32
2022-08-30T14:37:49.291Z,11.55
2022-08-30T14:40:17.589Z,37.55
2022-08-30T14:42:44.845Z,473.65
2022-08-30T14:45:12.246Z,75.93
2022-08-30T14:47:39.363Z,40.00
2022-08-30T14:50:07.524Z,116.10
2022-08-30T14:52:35.574Z,25.10
2022-08-30T14:55:09.234Z,184.85
2022-08-30T14:57:38.177Z,222.77
2022-08-30T15:00:08.624Z,245.75
2022-08-30T15:02:35.522Z,340.88
2022-08-30T15:05:02.810Z,353.10
2022-08-30T15:07:31.184Z,356.58
2022-08-30T15:09:58.150Z,304.60
2022-08-30T15:12:24.914Z,329.42
2022-08-30T15:14:51.703Z,434.05
2022-08-30T15:17:19.265Z,320.95
2022-08-30T15:19:46.040Z,395.48
2022-08-30T15:22:15.169Z,411.33
2022-08-30T15:24:43.389Z,503.65
2022-08-30T15:27:15.743Z,395.92
2022-08-30T15:29:42.578Z,457.85
2022-08-30T15:32:09.383Z,498.48
2022-08-30T15:34:36.412Z,600.15
2022-08-30T15:37:04.959Z,614.20
2022-08-30T15:39:32.300Z,139.60
2022-08-30T15:42:01.175Z,120.30
2022-08-30T15:44:32.483Z,165.57
2022-08-30T15:47:01.392Z,799.78
2022-08-30T15:49:28.679Z,779.88
2022-08-30T15:52:01.721Z,772.95
2022-08-30T15:54:28.895Z,516.88
2022-08-30T15:56:59.382Z,458.77
2022-08-30T15:59:28.046Z,486.35
2022-08-30T16:01:54.994Z,552.72
2022-08-30T16:04:24.280Z,476.13
2022-08-30T16:06:53.288Z,383.05
2022-08-30T16:09:21.020Z,447.70
2022-08-30T16:11:48.643Z,287.00
2022-08-30T16:14:15.490Z,356.60
2022-08-30T16:16:42.253Z,355.48
2022-08-30T16:19:10.171Z,364.73
2022-08-30T16:21:38.050Z,308.13
2022-08-30T16:24:06.618Z,273.05
2022-08-30T16:26:35.021Z,315.85
2022-08-30T16:29:03.156Z,328.20
2022-08-30T16:31:31.646Z,337.70
2022-08-30T16:34:02.629Z,239.82
2022-08-30T16:38:58.489Z,396.08
2022-08-30T16:41:25.776Z,464.83
2022-08-30T16:43:53.189Z,401.58
2022-08-30T16:46:27.736Z,411.63
2022-08-30T16:48:57.079Z,407.05
2022-08-30T16:51:26.563Z,435.70
2022-08-30T16:53:56.221Z,420.90
2022-08-30T16:56:26.505Z,402.40
2022-08-30T16:59:00.835Z,399.08
2022-08-30T17:01:28.885Z,495.83
2022-08-30T17:03:56.230Z,472.92
2022-08-30T17:06:23.050Z,369.65
2022-08-30T17:08:55.780Z,350.88
2022-08-30T17:11:24.495Z,344.20
2022-08-30T17:13:51.787Z,428.10
2022-08-30T17:19:07.898Z,431.63
2022-08-30T17:21:35.330Z,410.15
2022-08-30T17:24:03.123Z,445.85
2022-08-30T17:26:35.622Z,362.58
2022-08-30T17:29:03.532Z,347.63
2022-08-30T17:34:17.413Z,76.78
2022-08-30T17:36:44.248Z,75.65
2022-08-30T17:39:11.839Z,130.65
2022-08-30T17:41:45.575Z,77.20
2022-08-30T17:44:17.908Z,100.03
2022-08-30T17:46:45.123Z,109.65
2022-08-30T17:49:12.042Z,208.13
2022-08-30T17:51:42.448Z,215.05
2022-08-30T17:54:11.971Z,246.95
2022-08-30T17:56:40.236Z,344.17
2022-08-30T17:59:08.032Z,415.48
2022-08-30T18:01:36.829Z,428.70
2022-08-30T18:04:06.091Z,448.13
2022-08-30T18:06:34.055Z,497.27
2022-08-30T18:09:01.854Z,505.15
2022-08-30T18:11:28.656Z,640.35
2022-08-30T18:13:55.656Z,640.47
2022-08-30T18:16:26.414Z,714.15
2022-08-30T18:18:57.448Z,913.17
2022-08-30T18:21:25.545Z,716.58
2022-08-30T18:23:55.564Z,584.55
2022-08-30T18:26:24.078Z,623.17
2022-08-30T18:28:51.468Z,790.58
2022-08-30T18:31:18.319Z,836.40
2022-08-30T18:33:45.344Z,821.53
2022-08-30T18:36:12.709Z,811.20
2022-08-30T18:38:40.255Z,855.05
2022-08-30T18:41:13.809Z,830.45
2022-08-30T18:43:41.434Z,984.40
2022-08-30T18:46:15.135Z,919.13
2022-08-30T18:48:46.005Z,929.35
2022-08-30T18:51:16.366Z,852.67
2022-08-30T18:53:44.594Z,840.00
2022-08-30T18:56:12.340Z,929.95
2022-08-30T18:58:40.523Z,842.75
2022-08-30T19:03:41.914Z,835.30
2022-08-30T19:06:11.618Z,851.55
2022-08-30T19:08:40.143Z,841.92
2022-08-30T19:11:08.471Z,847.17
2022-08-30T19:13:36.507Z,941.38
2022-08-30T19:16:05.661Z,931.75
2022-08-30T19:18:32.698Z,844.20
2022-08-30T19:20:59.981Z,928.70
2022-08-30T19:23:33.038Z,857.30
2022-08-30T19:26:00.966Z,810.25
2022-08-30T19:28:28.728Z,776.42
2022-08-30T19:30:55.548Z,696.20
2022-08-30T19:33:22.375Z,740.95
2022-08-30T19:35:51.308Z,268.63
2022-08-30T19:38:18.664Z,96.53
2022-08-30T19:40:49.080Z,58.88
2022-08-30T19:43:19.415Z,53.10
2022-08-30T19:45:46.257Z,103.03
2022-08-30T19:48:13.784Z,115.07
2022-08-30T19:50:41.956Z,122.95
2022-08-30T19:53:09.102Z,69.05
2022-08-30T19:55:37.501Z,91.20
2022-08-30T19:58:04.688Z,119.63
2022-08-30T20:00:31.738Z,171.27
2022-08-30T20:03:01.425Z,201.10
2022-08-30T20:05:29.226Z,116.55
2022-08-30T20:07:58.339Z,166.55
2022-08-30T20:10:25.963Z,139.68
2022-08-30T20:12:53.004Z,101.22
2022-08-30T20:15:23.644Z,105.03
2022-08-30T20:18:05.384Z,64.75
2022-08-30T20:20:33.723Z,102.93
2022-08-30T20:23:04.649Z,575.67
2022-08-30T20:24:24.989Z,398.63
2022-08-30T20:24:24.993Z,294.90
2022-08-30T20:25:32.241Z,562.72
2022-08-30T20:28:00.445Z,524.88
2022-08-30T20:30:27.401Z,522.22
2022-08-30T20:32:54.464Z,378.20
2022-08-30T20:35:21.602Z,489.33
2022-08-30T20:37:49.809Z,497.92
2022-08-30T20:40:17.386Z,555.47
2022-08-30T20:42:46.292Z,528.28
2022-08-30T20:45:15.204Z,487.85
2022-08-30T20:47:43.200Z,591.28
2022-08-30T20:50:14.296Z,548.45
2022-08-30T20:52:41.707Z,469.70
2022-08-30T20:55:09.994Z,584.40
2022-08-30T20:57:37.175Z,703.28
2022-08-30T21:00:08.696Z,527.80
2022-08-30T21:02:36.938Z,643.88
2022-08-30T21:05:11.638Z,666.70
2022-08-30T21:07:38.842Z,656.28
2022-08-30T21:10:06.247Z,784.10
2022-08-30T21:12:33.209Z,868.60
2022-08-30T21:15:07.360Z,796.92
2022-08-30T21:20:10.164Z,897.40
2022-08-30T21:22:38.270Z,915.95
2022-08-30T21:25:06.087Z,766.38
2022-08-30T21:27:32.863Z,595.15
2022-08-30T21:30:00.036Z,534.47
2022-08-30T21:32:26.877Z,489.95
2022-08-30T21:35:11.997Z,491.67
2022-08-30T21:37:38.775Z,489.42
2022-08-30T21:40:06.028Z,723.92
2022-08-30T21:42:33.440Z,593.42
2022-08-30T21:45:00.226Z,520.78
2022-08-30T21:47:27.268Z,591.13
2022-08-30T21:49:54.087Z,521.58
2022-08-30T21:52:20.853Z,619.97
2022-08-30T21:54:48.620Z,537.55
2022-08-30T21:57:16.978Z,465.65
2022-08-30T21:59:44.735Z,523.03
2022-08-30T22:02:12.221Z,542.35
2022-08-30T22:04:40.840Z,425.23
2022-08-30T22:07:08.402Z,490.65
2022-08-30T22:09:35.781Z,154.68
2022-08-30T22:12:04.673Z,73.13
2022-08-30T22:14:33.791Z,38.22
2022-08-30T22:17:02.066Z,13.93
2022-08-30T22:19:31.550Z,24.48
2022-08-30T22:22:01.698Z,49.83
2022-08-30T22:24:32.852Z,46.05
2022-08-30T22:27:03.436Z,31.33
2022-08-30T22:29:30.564Z,43.92
2022-08-30T22:31:57.410Z,20.55
2022-08-30T22:34:24.617Z,17.10
2022-08-30T22:36:51.415Z,9.60
2022-08-30T22:39:18.479Z,11.73
2022-08-30T22:41:45.637Z,12.80
2022-08-30T22:44:12.564Z,41.08
2022-08-30T22:46:40.212Z,69.82
2022-08-30T22:49:09.184Z,57.35
2022-08-30T22:51:37.091Z,40.13
2022-08-30T22:54:05.565Z,74.68
2022-08-30T22:56:34.124Z,39.47
2022-08-30T22:59:01.493Z,107.05
2022-08-30T23:01:31.360Z,26.70
2022-08-30T23:04:00.999Z,57.92
2022-08-30T23:06:29.116Z,117.75
2022-08-30T23:08:56.258Z,63.85
2022-08-30T23:11:24.069Z,42.42
2022-08-30T23:13:50.927Z,166.05
2022-08-30T23:16:19.050Z,258.30
2022-08-30T23:18:46.912Z,129.32
2022-08-30T23:21:18.717Z,80.32
2022-08-30T23:24:03.852Z,278.55
2022-08-30T23:26:49.447Z,361.30
2022-08-30T23:29:34.940Z,436.92
2022-08-30T23:32:20.409Z,399.73
2022-08-30T23:35:05.938Z,482.77
2022-08-30T23:37:53.109Z,410.63
2022-08-30T23:40:39.869Z,537.85
2022-08-30T23:43:25.804Z,392.35
2022-08-30T23:46:11.289Z,423.77
2022-08-30T23:49:05.338Z,102.03
2022-08-30T23:51:50.832Z,92.72
2022-08-30T23:54:36.255Z,47.28
2022-08-30T23:57:21.678Z,13.85
